Time;durP1;ratioP1;P1;durP2;ratioP2;P2;SDS_P1;SDS_P2;PMS_P1;PMS_P2;Temp;Humidity;BMP_temperature;BMP_pressure;BME280_temperature;BME280_humidity;BME280_pressure;Samples;Min_cycle;Max_cycle;Signal;HPM_P1;HPM_P2
2022/04/27 00:01:43;;;;;;;25.23;18.20;;;;;;;8.23;71.25;97315.94;1718495;82;25718;-75
2022/04/27 00:04:09;;;;;;;26.12;18.85;;;;;;;8.22;71.33;97316.97;1686126;83;25730;-73
2022/04/27 00:06:36;;;;;;;28.98;19.40;;;;;;;8.24;71.40;97321.64;1686333;84;25757;-73
2022/04/27 00:09:04;;;;;;;28.85;19.23;;;;;;;8.23;71.29;97318.12;1661637;86;27390;-73
2022/04/27 00:11:30;;;;;;;30.68;19.57;;;;;;;8.24;71.32;97317.61;1718471;82;25767;-73
2022/04/27 00:14:00;;;;;;;30.50;19.12;;;;;;;8.26;71.19;97319.08;1686307;85;25781;-75
2022/04/27 00:16:25;;;;;;;29.70;18.57;;;;;;;8.27;71.18;97323.94;1661374;86;26570;-75
2022/04/27 00:18:52;;;;;;;28.95;19.10;;;;;;;8.21;71.22;97324.75;1718681;83;25758;-74
2022/04/27 00:21:19;;;;;;;26.00;17.98;;;;;;;8.16;71.37;97318.61;1686121;85;27366;-73
2022/04/27 00:23:46;;;;;;;33.15;20.85;;;;;;;8.14;71.46;97320.66;1652565;85;25720;-75
2022/04/27 00:26:12;;;;;;;27.60;18.80;;;;;;;8.14;71.57;97317.97;1663198;86;25811;-75
2022/04/27 00:28:39;;;;;;;29.72;19.67;;;;;;;8.13;71.63;97319.00;1663181;85;25905;-73
2022/04/27 00:31:08;;;;;;;27.98;19.12;;;;;;;8.13;71.66;97324.38;1662570;86;25773;-73
2022/04/27 00:33:34;;;;;;;29.87;19.57;;;;;;;8.07;71.69;97317.11;1663453;86;27666;-73
2022/04/27 00:36:01;;;;;;;26.77;19.05;;;;;;;8.03;71.83;97316.35;1663235;86;25661;-73
2022/04/27 00:38:27;;;;;;;28.47;19.40;;;;;;;8.04;71.96;97321.53;1663478;86;25723;-73
2022/04/27 00:40:54;;;;;;;27.13;18.48;;;;;;;8.04;72.05;97317.50;1663365;86;25751;-74
2022/04/27 00:43:39;;;;;;;26.82;18.15;;;;;;;8.05;72.09;97316.48;1663474;86;25794;-73
2022/04/27 00:46:06;;;;;;;27.30;18.90;;;;;;;8.06;72.00;97318.14;1663287;86;28202;-74
2022/04/27 00:48:32;;;;;;;26.27;18.40;;;;;;;8.03;71.93;97318.53;1667974;85;26086;-72
2022/04/27 00:51:03;;;;;;;27.67;19.15;;;;;;;7.97;71.94;97314.47;1668366;86;25844;-73
2022/04/27 00:53:30;;;;;;;27.05;18.27;;;;;;;7.95;72.12;97316.84;1668540;86;26364;-73
2022/04/27 00:55:58;;;;;;;27.65;18.75;;;;;;;7.95;72.16;97321.38;1668344;86;26075;-74
2022/04/27 00:58:27;;;;;;;25.60;17.62;;;;;;;7.99;72.11;97319.94;1634124;87;27576;-73
2022/04/27 01:00:54;;;;;;;25.20;17.37;;;;;;;7.98;72.10;97323.65;1604957;89;26235;-73
2022/04/27 01:03:23;;;;;;;32.33;20.00;;;;;;;8.01;72.16;97316.55;1619488;88;25773;-75
2022/04/27 01:05:50;;;;;;;29.25;19.75;;;;;;;8.03;72.11;97322.56;1634422;87;26468;-74
2022/04/27 01:08:21;;;;;;;29.57;19.10;;;;;;;8.07;72.02;97322.49;1605188;89;25804;-72
2022/04/27 01:10:49;;;;;;;31.65;20.65;;;;;;;8.07;72.06;97313.59;1606702;89;28247;-73
2022/04/27 01:13:16;;;;;;;33.50;20.02;;;;;;;8.03;72.04;97318.53;1675956;85;25816;-75
2022/04/27 01:15:43;;;;;;;28.60;19.77;;;;;;;8.00;72.08;97320.26;1676107;85;25926;-73
2022/04/27 01:18:11;;;;;;;31.55;21.48;;;;;;;8.00;72.07;97324.29;1676070;85;25816;-73
2022/04/27 01:20:45;;;;;;;32.45;21.00;;;;;;;7.94;72.06;97325.92;1676236;85;25820;-73
2022/04/27 01:23:13;;;;;;;34.03;20.57;;;;;;;7.92;72.15;97324.45;1653511;85;27468;-73
2022/04/27 01:25:57;;;;;;;29.87;20.00;;;;;;;7.92;72.20;97327.14;1675255;84;27257;-75
2022/04/27 01:28:30;;;;;;;29.32;20.30;;;;;;;7.91;72.22;97327.66;1675549;85;25832;-73
2022/04/27 01:31:00;;;;;;;31.48;21.62;;;;;;;7.94;72.30;97329.12;1675548;85;25805;-72
2022/04/27 01:33:27;;;;;;;29.40;19.62;;;;;;;7.95;72.18;97329.44;1650836;86;25316;-73
2022/04/27 01:35:54;;;;;;;29.02;20.15;;;;;;;7.92;72.14;97327.14;1651014;86;27544;-73
2022/04/27 01:38:21;;;;;;;33.33;21.55;;;;;;;7.88;72.20;97332.58;1650624;86;25738;-73
2022/04/27 01:40:50;;;;;;;31.93;20.68;;;;;;;7.83;72.19;97329.16;1651061;86;25814;-74
2022/04/27 01:43:16;;;;;;;32.20;20.72;;;;;;;7.85;72.33;97326.25;1650942;86;25857;-72
2022/04/27 01:45:44;;;;;;;31.23;20.43;;;;;;;7.83;72.32;97330.50;1651016;86;26076;-73
2022/04/27 01:48:13;;;;;;;30.52;20.62;;;;;;;7.77;72.41;97330.44;1650854;86;28329;-75
2022/04/27 01:50:40;;;;;;;33.10;20.55;;;;;;;7.79;72.26;97329.73;1650706;86;26137;-74
2022/04/27 01:55:52;;;;;;;28.73;19.65;;;;;;;7.81;72.26;97331.20;1651860;86;26421;-73
2022/04/27 01:58:19;;;;;;;31.02;20.12;;;;;;;7.81;72.18;97332.55;1652562;86;25475;-75
2022/04/27 02:00:47;;;;;;;33.95;21.37;;;;;;;7.80;72.26;97326.86;1652448;86;27585;-75
2022/04/27 02:03:15;;;;;;;32.23;20.57;;;;;;;7.79;72.32;97325.70;1652470;86;26454;-73
2022/04/27 02:05:42;;;;;;;28.35;19.77;;;;;;;7.81;72.39;97321.80;1652494;86;25762;-73
2022/04/27 02:08:09;;;;;;;32.48;20.60;;;;;;;7.81;72.25;97320.45;1652009;86;26560;-73
2022/04/27 02:10:35;;;;;;;31.10;20.72;;;;;;;7.77;72.17;97326.41;1652354;86;25702;-73
2022/04/27 02:13:08;;;;;;;30.70;20.30;;;;;;;7.72;72.21;97324.83;1652272;86;27580;-73
2022/04/27 02:15:36;;;;;;;32.28;21.95;;;;;;;7.75;72.32;97322.56;1641306;87;25779;-75
2022/04/27 02:18:04;;;;;;;32.65;20.32;;;;;;;7.80;72.29;97323.34;1641315;87;25898;-73
2022/04/27 02:20:30;;;;;;;32.08;19.45;;;;;;;7.84;72.22;97321.92;1641552;87;25760;-73
2022/04/27 02:22:57;;;;;;;28.17;20.00;;;;;;;7.83;72.32;97328.33;1641568;86;26440;-75
2022/04/27 02:25:23;;;;;;;33.78;21.10;;;;;;;7.79;72.47;97325.19;1632301;87;27488;-74
2022/04/27 02:27:50;;;;;;;30.82;20.32;;;;;;;7.80;72.53;97323.34;1630244;86;25769;-75
2022/04/27 02:30:20;;;;;;;30.05;20.05;;;;;;;7.79;72.48;97330.56;1655661;83;25860;-73
2022/04/27 02:32:48;;;;;;;30.27;20.45;;;;;;;7.74;72.50;97326.78;1682134;83;25798;-75
2022/04/27 02:35:15;;;;;;;28.20;19.82;;;;;;;7.70;72.52;97332.25;1682137;83;25888;-73
2022/04/27 02:37:42;;;;;;;30.08;19.80;;;;;;;7.68;72.60;97327.58;1682180;85;27611;-73
2022/04/27 02:40:10;;;;;;;31.30;21.48;;;;;;;7.69;72.75;97327.91;1681785;85;25750;-73
2022/04/27 02:42:37;;;;;;;34.35;20.55;;;;;;;7.68;72.73;97324.89;1681947;83;25861;-72
2022/04/27 02:45:05;;;;;;;29.15;20.23;;;;;;;7.65;72.58;97324.77;1682106;85;25853;-74
2022/04/27 02:47:31;;;;;;;31.93;19.65;;;;;;;7.67;72.79;97323.23;1682172;85;25749;-75
2022/04/27 02:52:43;;;;;;;30.30;21.00;;;;;;;7.63;72.72;97316.58;1681738;83;25908;-72
2022/04/27 02:55:10;;;;;;;28.50;19.35;;;;;;;7.66;72.68;97324.25;1682048;83;25754;-73
2022/04/27 02:57:36;;;;;;;30.57;19.80;;;;;;;7.64;72.71;97323.61;1682176;83;25886;-72
2022/04/27 03:00:05;;;;;;;28.15;19.07;;;;;;;7.65;72.49;97328.80;1681805;85;25797;-73
2022/04/27 03:02:31;;;;;;;30.43;20.57;;;;;;;7.65;72.36;97337.37;1682087;83;28000;-72
2022/04/27 03:05:00;;;;;;;30.55;19.35;;;;;;;7.62;72.28;97335.89;1682022;85;25785;-72
2022/04/27 03:07:30;;;;;;;31.20;20.30;;;;;;;7.63;72.19;97336.72;1675974;83;25822;-73
2022/04/27 03:09:56;;;;;;;27.40;18.67;;;;;;;7.66;72.20;97333.66;1665228;86;25793;-73
2022/04/27 03:12:23;;;;;;;27.80;18.92;;;;;;;7.68;72.17;97336.98;1676331;85;25787;-73
2022/04/27 03:14:49;;;;;;;30.27;19.40;;;;;;;7.69;72.32;97338.65;1685161;85;27451;-73
2022/04/27 03:17:16;;;;;;;31.82;19.67;;;;;;;7.69;72.37;97350.74;1685277;85;25965;-73
2022/04/27 03:19:42;;;;;;;30.75;19.23;;;;;;;7.65;72.54;97348.95;1685310;85;25741;-73
2022/04/27 03:22:09;;;;;;;27.17;17.62;;;;;;;7.61;72.38;97348.20;1685205;85;25829;-73
2022/04/27 03:24:37;;;;;;;22.67;16.50;;;;;;;7.60;72.32;97347.38;1693171;84;26193;-76
2022/04/27 03:27:05;;;;;;;25.32;17.35;;;;;;;7.61;72.25;97354.38;1707927;84;28127;-73
2022/04/27 03:29:32;;;;;;;24.92;16.45;;;;;;;7.64;72.15;97349.14;1708059;84;25702;-73
2022/04/27 03:31:58;;;;;;;24.63;16.82;;;;;;;7.64;72.12;97353.16;1708055;84;25767;-73
2022/04/27 03:34:25;;;;;;;25.72;17.52;;;;;;;7.66;72.12;97353.80;1708076;84;25717;-73
2022/04/27 03:36:52;;;;;;;22.52;16.62;;;;;;;7.67;72.07;97356.81;1708125;84;25774;-73
2022/04/27 03:39:19;;;;;;;25.08;16.90;;;;;;;7.67;71.96;97359.50;1708258;84;27550;-74
2022/04/27 03:41:45;;;;;;;24.90;17.45;;;;;;;7.66;71.86;97361.87;1708120;84;25864;-73
2022/04/27 03:44:12;;;;;;;24.05;16.77;;;;;;;7.67;71.85;97364.36;1708060;84;25779;-75
2022/04/27 03:46:39;;;;;;;30.10;19.12;;;;;;;7.70;71.92;97363.16;1707930;84;25837;-74
2022/04/27 03:49:05;;;;;;;33.98;21.62;;;;;;;7.71;71.86;97369.67;1708111;84;25803;-73
2022/04/27 03:51:32;;;;;;;37.93;21.65;;;;;;;7.72;71.87;97370.52;1708130;84;27440;-74
2022/04/27 03:53:59;;;;;;;31.30;21.07;;;;;;;7.74;71.92;97369.78;1708135;84;26108;-74
2022/04/27 03:56:26;;;;;;;33.90;22.32;;;;;;;7.74;71.83;97381.36;1708169;84;25721;-73
2022/04/27 03:58:52;;;;;;;37.42;22.00;;;;;;;7.71;71.80;97375.56;1708284;84;26453;-73
2022/04/27 04:01:20;;;;;;;31.27;21.62;;;;;;;7.69;71.83;97387.01;1708161;84;25856;-73
2022/04/27 04:03:46;;;;;;;31.40;21.20;;;;;;;7.68;72.01;97388.03;1708140;84;28139;-73
2022/04/27 04:06:13;;;;;;;33.92;22.55;;;;;;;7.69;72.03;97381.13;1707987;84;26330;-75
2022/04/27 04:08:40;;;;;;;32.25;21.20;;;;;;;7.70;71.99;97388.67;1733641;81;25473;-76
2022/04/27 04:11:06;;;;;;;33.00;22.17;;;;;;;7.70;71.87;97391.36;1737752;81;25845;-73
2022/04/27 04:13:33;;;;;;;34.03;22.90;;;;;;;7.68;71.91;97392.06;1737838;82;25708;-73
2022/04/27 04:16:00;;;;;;;31.85;21.62;;;;;;;7.68;72.00;97398.27;1737353;81;27452;-72
2022/04/27 04:18:26;;;;;;;32.40;21.10;;;;;;;7.69;72.04;97397.76;1737545;82;25470;-73
2022/04/27 04:20:53;;;;;;;34.88;22.22;;;;;;;7.69;72.09;97401.78;1737689;82;25700;-75
2022/04/27 04:23:19;;;;;;;27.75;19.27;;;;;;;7.71;72.12;97405.12;1737745;81;26467;-73
2022/04/27 04:28:31;;;;;;;32.67;20.35;;;;;;;7.64;72.15;97405.04;1724504;83;27545;-75
2022/04/27 04:31:01;;;;;;;30.23;20.32;;;;;;;7.62;72.21;97408.94;1724058;83;25306;-73
2022/04/27 04:33:28;;;;;;;31.27;20.65;;;;;;;7.62;72.34;97414.31;1724469;83;25705;-73
2022/04/27 04:35:55;;;;;;;31.68;20.72;;;;;;;7.66;72.44;97420.97;1724682;83;25698;-74
2022/04/27 04:38:22;;;;;;;32.95;21.05;;;;;;;7.69;72.51;97415.22;1724613;83;25685;-76
2022/04/27 04:40:49;;;;;;;36.63;23.38;;;;;;;7.75;72.51;97422.50;1724315;83;27255;-73
2022/04/27 04:43:16;;;;;;;33.95;22.48;;;;;;;7.80;72.42;97420.91;1724012;83;25852;-75
2022/04/27 04:45:43;;;;;;;35.83;22.58;;;;;;;7.84;72.45;97423.53;1724541;83;25710;-73
2022/04/27 04:48:09;;;;;;;34.23;22.13;;;;;;;7.84;72.54;97426.73;1724333;83;26416;-75
2022/04/27 04:50:38;;;;;;;33.18;22.07;;;;;;;7.80;72.48;97426.79;1724617;83;25971;-74
2022/04/27 04:53:05;;;;;;;33.90;23.05;;;;;;;7.76;72.57;97424.16;1724629;83;27409;-73
2022/04/27 04:55:33;;;;;;;35.55;23.05;;;;;;;7.79;72.63;97429.16;1724428;83;25765;-73
2022/04/27 04:57:59;;;;;;;37.35;24.45;;;;;;;7.81;72.64;97432.48;1724518;83;25678;-73
2022/04/27 05:00:26;;;;;;;32.38;22.95;;;;;;;7.83;72.57;97428.59;1724373;83;25744;-73
2022/04/27 05:02:53;;;;;;;37.85;24.35;;;;;;;7.89;72.67;97431.83;1724570;83;25695;-73
2022/04/27 05:05:19;;;;;;;36.95;24.47;;;;;;;7.96;72.56;97437.28;1724567;83;28666;-73
2022/04/27 05:07:46;;;;;;;38.30;26.02;;;;;;;8.01;72.45;97438.85;1724584;83;25978;-75
2022/04/27 05:10:13;;;;;;;40.38;26.87;;;;;;;8.07;72.34;97440.78;1724549;83;25702;-74
2022/04/27 05:12:39;;;;;;;40.03;25.48;;;;;;;8.12;72.24;97436.97;1724523;82;26347;-74
2022/04/27 05:15:06;;;;;;;34.63;25.02;;;;;;;8.18;72.14;97445.63;1724483;83;25791;-75
2022/04/27 05:17:33;;;;;;;39.78;24.40;;;;;;;8.21;72.16;97445.20;1724166;83;28277;-73
2022/04/27 05:20:00;;;;;;;35.15;22.55;;;;;;;8.24;72.12;97451.55;1724416;83;25996;-75
2022/04/27 05:22:37;;;;;;;33.40;22.67;;;;;;;8.26;72.00;97453.53;1724258;83;25726;-75
2022/04/27 05:25:10;;;;;;;35.08;23.70;;;;;;;8.27;71.90;97448.98;1722020;83;25753;-73
2022/04/27 05:27:38;;;;;;;35.75;23.05;;;;;;;8.25;71.88;97453.22;1724427;83;25913;-75
2022/04/27 05:32:52;;;;;;;33.90;22.73;;;;;;;8.27;71.76;97455.70;1724075;83;25734;-75
2022/04/27 05:35:19;;;;;;;38.30;25.15;;;;;;;8.25;71.75;97451.87;1724455;83;25686;-76
2022/04/27 05:37:45;;;;;;;36.83;24.60;;;;;;;8.25;71.90;97459.94;1724570;83;25828;-78
2022/04/27 05:40:13;;;;;;;33.35;23.77;;;;;;;8.27;71.82;97459.23;1724626;83;25466;-75
2022/04/27 05:42:40;;;;;;;40.28;26.15;;;;;;;8.31;71.89;97465.06;1724564;83;27462;-76
2022/04/27 05:45:08;;;;;;;39.18;26.12;;;;;;;8.34;71.84;97463.84;1724410;83;25734;-76
2022/04/27 05:47:35;;;;;;;45.58;27.17;;;;;;;8.37;71.80;97460.77;1724416;83;25947;-75
2022/04/27 05:50:04;;;;;;;38.05;26.50;;;;;;;8.37;71.79;97463.46;1724473;83;25846;-78
2022/04/27 05:52:49;;;;;;;36.60;25.15;;;;;;;8.38;71.86;97461.09;1724594;83;25753;-75
2022/04/27 05:55:16;;;;;;;45.33;28.30;;;;;;;8.44;71.89;97471.08;1653091;86;27514;-76
2022/04/27 05:57:42;;;;;;;44.38;28.47;;;;;;;8.50;71.86;97473.80;1653348;86;25775;-77
2022/04/27 06:00:11;;;;;;;43.20;28.75;;;;;;;8.53;71.73;97468.04;1653430;86;25770;-75
2022/04/27 06:02:38;;;;;;;44.45;29.27;;;;;;;8.58;71.66;97467.43;1653385;85;26989;-75
2022/04/27 06:05:07;;;;;;;44.13;28.17;;;;;;;8.62;71.56;97468.70;1653462;86;25830;-77
2022/04/27 06:07:35;;;;;;;43.55;28.90;;;;;;;8.65;71.51;97469.16;1653355;85;27387;-75
2022/04/27 06:10:07;;;;;;;42.13;27.93;;;;;;;8.70;71.61;97465.02;1653302;86;25301;-75
2022/04/27 06:12:39;;;;;;;43.05;29.40;;;;;;;8.72;71.61;97469.18;1622417;88;25833;-76
2022/04/27 06:15:09;;;;;;;;;;;;;;;8.68;71.61;97474.66;1624755;88;25788;-78
2022/04/27 06:17:36;;;;;;;45.80;30.15;;;;;;;8.68;71.68;97480.05;1622518;88;25972;-76
2022/04/27 06:20:04;;;;;;;51.95;31.30;;;;;;;8.72;71.71;97482.63;1622271;88;27443;-75
2022/04/27 06:22:31;;;;;;;49.73;32.08;;;;;;;8.81;71.57;97485.51;1622440;88;25955;-76
2022/04/27 06:24:58;;;;;;;46.58;30.72;;;;;;;8.86;71.45;97492.45;1620210;88;25322;-74
2022/04/27 06:27:25;;;;;;;48.63;32.05;;;;;;;8.88;71.34;97485.02;1601864;89;25882;-75
2022/04/27 06:29:51;;;;;;;48.23;31.35;;;;;;;8.91;71.15;97491.88;1602208;89;25903;-74
2022/04/27 06:32:18;;;;;;;43.25;28.30;;;;;;;8.91;71.04;97487.32;1602150;89;28103;-75
2022/04/27 06:34:44;;;;;;;44.93;30.10;;;;;;;8.96;71.07;97491.58;1602045;89;25973;-75
2022/04/27 06:37:11;;;;;;;43.33;28.62;;;;;;;8.96;70.96;97492.09;1601948;89;25331;-76
2022/04/27 06:39:42;;;;;;;43.52;28.65;;;;;;;9.01;71.15;97486.44;1602054;89;26593;-77
2022/04/27 06:42:09;;;;;;;43.60;28.90;;;;;;;9.02;71.00;97486.76;1602131;89;25846;-78
2022/04/27 06:44:35;;;;;;;41.85;27.60;;;;;;;9.08;70.92;97491.01;1602138;89;27285;-75
2022/04/27 06:47:03;;;;;;;36.20;25.17;;;;;;;9.12;70.75;97491.77;1611918;87;25792;-74
2022/04/27 06:49:30;;;;;;;39.10;27.48;;;;;;;9.17;70.54;97495.22;1631301;87;25759;-76
2022/04/27 06:51:56;;;;;;;41.02;26.75;;;;;;;9.19;70.41;97499.86;1631192;87;26609;-77
2022/04/27 06:54:23;;;;;;;36.60;24.25;;;;;;;9.22;70.49;97496.78;1631197;87;25781;-76
2022/04/27 06:56:50;;;;;;;40.75;27.15;;;;;;;9.21;69.92;97493.77;1631235;87;27659;-78
2022/04/27 06:59:17;;;;;;;38.75;26.37;;;;;;;9.24;70.06;97500.94;1631293;87;25578;-76
2022/04/27 07:01:43;;;;;;;36.35;24.67;;;;;;;9.32;70.14;97510.70;1631423;87;25828;-76
2022/04/27 07:04:11;;;;;;;35.25;23.77;;;;;;;9.35;70.08;97505.75;1631100;87;25709;-76
2022/04/27 07:06:39;;;;;;;32.38;21.23;;;;;;;9.37;69.93;97510.42;1631322;87;26076;-77
2022/04/27 07:14:09;;;;;;;28.45;19.77;;;;;;;9.46;69.64;97513.77;1554341;92;26067;-76
2022/04/27 07:16:36;;;;;;;26.40;19.20;;;;;;;9.48;69.40;97514.41;1553255;92;26681;-76
2022/04/27 07:19:02;;;;;;;26.33;18.32;;;;;;;9.47;69.23;97515.43;1553131;92;26076;-75
2022/04/27 07:21:29;;;;;;;27.65;18.45;;;;;;;9.46;69.28;97520.50;1545504;92;27644;-75
2022/04/27 07:23:57;;;;;;;24.43;17.82;;;;;;;9.48;69.32;97517.09;1529219;93;25807;-76
2022/04/27 07:26:24;;;;;;;26.95;17.98;;;;;;;9.50;69.14;97520.42;1528924;93;26037;-77
2022/04/27 07:28:51;;;;;;;24.60;17.57;;;;;;;9.46;69.05;97527.23;1528899;93;26487;-78
2022/04/27 07:31:18;;;;;;;25.57;18.77;;;;;;;9.47;69.16;97530.25;1529012;93;25831;-77
2022/04/27 07:33:45;;;;;;;25.90;18.05;;;;;;;9.50;69.09;97527.67;1529031;93;27401;-78
2022/04/27 07:36:12;;;;;;;27.55;18.20;;;;;;;9.52;69.10;97534.53;1528898;93;25823;-75
2022/04/27 07:38:38;;;;;;;24.98;16.85;;;;;;;9.53;68.95;97533.50;1528999;93;25820;-75
2022/04/27 07:41:06;;;;;;;24.30;16.65;;;;;;;9.55;68.85;97536.80;1529013;93;25919;-78
2022/04/27 07:43:33;;;;;;;22.07;16.17;;;;;;;9.55;68.78;97541.36;1529105;93;25772;-75
2022/04/27 07:46:00;;;;;;;21.17;15.55;;;;;;;9.54;68.82;97539.18;1529026;93;27501;-76
2022/04/27 07:48:32;;;;;;;24.52;16.37;;;;;;;9.56;68.74;97542.51;1528897;92;25854;-77
2022/04/27 07:50:56;;;;;;;21.60;15.85;;;;;;;9.59;68.79;97546.16;1531874;90;25739;-76
2022/04/27 07:53:22;;;;;;;24.15;16.57;;;;;;;9.63;68.70;97547.94;1529015;93;26309;-77
2022/04/27 07:55:49;;;;;;;23.95;16.10;;;;;;;9.67;68.63;97549.18;1528970;92;25925;-76
2022/04/27 07:58:19;;;;;;;22.75;16.35;;;;;;;9.65;68.35;97549.41;1528971;93;27759;-76
2022/04/27 08:00:46;;;;;;;18.82;14.83;;;;;;;9.65;68.33;97554.80;1528738;93;25827;-76
2022/04/27 08:03:12;;;;;;;25.43;17.12;;;;;;;9.68;68.46;97555.72;1528987;93;25817;-76
2022/04/27 08:05:39;;;;;;;23.87;17.67;;;;;;;9.69;68.39;97557.38;1528900;93;26443;-76
2022/04/27 08:08:08;;;;;;;22.98;16.35;;;;;;;9.73;68.35;97567.25;1548682;90;25743;-77
2022/04/27 08:10:34;;;;;;;27.07;18.52;;;;;;;9.70;68.25;97563.09;1579645;87;27677;-75
2022/04/27 08:13:01;;;;;;;32.55;19.62;;;;;;;9.72;68.18;97567.77;1639527;87;25340;-76
2022/04/27 08:15:28;;;;;;;25.50;17.70;;;;;;;9.78;68.19;97568.81;1651104;86;25728;-75
2022/04/27 08:18:00;;;;;;;25.35;16.30;;;;;;;9.84;68.31;97572.58;1651067;86;25691;-76
2022/04/27 08:23:23;;;;;;;21.80;16.07;;;;;;;9.90;68.08;97569.08;1651230;86;27408;-75
2022/04/27 08:25:51;;;;;;;22.05;16.45;;;;;;;9.89;68.02;97575.51;1654699;85;25804;-76
2022/04/27 08:28:19;;;;;;;23.05;17.05;;;;;;;9.87;67.97;97572.18;1724365;81;25780;-76
2022/04/27 08:30:47;;;;;;;25.48;17.73;;;;;;;9.92;67.95;97571.03;1724131;81;25988;-76
2022/04/27 08:33:15;;;;;;;22.50;17.20;;;;;;;9.94;67.82;97578.41;1724468;81;25779;-76
2022/04/27 08:35:42;;;;;;;28.45;18.70;;;;;;;9.91;67.75;97580.16;1724547;83;27027;-78
2022/04/27 08:38:10;;;;;;;30.80;19.15;;;;;;;9.91;67.77;97584.20;1724543;83;25951;-78
2022/04/27 08:40:44;;;;;;;28.83;19.42;;;;;;;9.92;67.72;97584.52;1724505;82;25769;-76
2022/04/27 08:43:13;;;;;;;23.95;17.77;;;;;;;9.96;67.83;97581.73;1644916;86;26886;-76
2022/04/27 08:45:42;;;;;;;25.37;17.90;;;;;;;9.94;67.82;97585.15;1644899;87;26026;-76
2022/04/27 08:48:10;;;;;;;30.55;20.72;;;;;;;9.94;68.14;97593.23;1644928;87;27465;-76
2022/04/27 08:50:38;;;;;;;29.72;19.73;;;;;;;9.99;68.29;97592.13;1644839;87;25805;-77
2022/04/27 08:53:04;;;;;;;30.32;21.85;;;;;;;10.01;68.11;97592.24;1644921;87;25753;-76
2022/04/27 08:55:31;;;;;;;27.32;20.08;;;;;;;10.07;68.16;97594.63;1644796;87;25765;-76
2022/04/27 08:58:13;;;;;;;30.17;20.48;;;;;;;10.05;68.14;97589.95;1644897;87;25876;-76
2022/04/27 09:00:42;;;;;;;29.20;19.15;;;;;;;10.05;67.87;97589.95;1645059;87;33240;-77
2022/04/27 09:03:27;;;;;;;31.57;20.75;;;;;;;10.04;67.84;97590.98;1644586;87;25765;-77
2022/04/27 09:06:01;;;;;;;31.35;20.75;;;;;;;10.01;68.21;97593.59;1636051;86;25865;-76
2022/04/27 09:08:45;;;;;;;32.40;22.00;;;;;;;10.02;68.14;97599.82;1636277;86;26587;-76
2022/04/27 09:11:21;;;;;;;33.10;21.73;;;;;;;10.02;68.29;97599.82;1636128;86;26056;-76
2022/04/27 09:14:03;;;;;;;29.50;21.70;;;;;;;10.03;68.29;97602.28;1646274;86;27533;-76
2022/04/27 09:22:27;;;;;;;33.78;22.13;;;;;;;10.13;68.43;97604.62;1666794;84;25679;-75
2022/04/27 09:24:58;;;;;;;31.73;22.35;;;;;;;10.16;68.58;97604.19;1666848;84;26824;-75
2022/04/27 09:27:26;;;;;;;32.95;22.85;;;;;;;10.18;68.41;97606.69;1666672;84;27558;-78
2022/04/27 09:30:07;;;;;;;37.45;23.47;;;;;;;10.18;68.48;97604.86;1666838;84;25844;-75
2022/04/27 09:32:34;;;;;;;31.25;22.30;;;;;;;10.23;68.44;97605.09;1666698;84;25825;-77
2022/04/27 09:35:03;;;;;;;31.37;22.02;;;;;;;10.27;68.65;97604.97;1666518;84;25836;-75
2022/04/27 09:37:38;;;;;;;38.02;23.90;;;;;;;10.30;68.73;97606.44;1666455;84;26170;-76
2022/04/27 09:40:11;;;;;;;30.97;22.22;;;;;;;10.28;68.91;97607.98;1664661;84;27390;-76
2022/04/27 09:42:46;;;;;;;33.88;22.95;;;;;;;10.29;68.79;97615.56;1666649;84;26250;-76
2022/04/27 09:45:26;;;;;;;34.45;24.43;;;;;;;10.28;68.70;97607.98;1666901;84;25777;-76
2022/04/27 09:48:08;;;;;;;35.78;24.45;;;;;;;10.29;68.83;97608.81;1666745;84;25808;-76
2022/04/27 09:50:56;;;;;;;34.27;22.62;;;;;;;10.27;68.79;97611.72;1666878;84;25811;-76
2022/04/27 09:53:23;;;;;;;32.38;22.15;;;;;;;10.27;68.87;97610.37;1608538;87;27430;-75
2022/04/27 09:55:55;;;;;;;33.48;23.50;;;;;;;10.22;68.81;97604.77;1608578;87;25866;-76
2022/04/27 09:58:26;;;;;;;32.20;22.32;;;;;;;10.19;68.87;97609.22;1608708;87;25790;-77
2022/04/27 10:00:57;;;;;;;30.12;22.20;;;;;;;10.15;68.89;97609.78;1602746;87;25777;-75
2022/04/27 10:03:25;;;;;;;32.13;21.42;;;;;;;10.16;68.88;97616.33;1600204;88;25837;-75
2022/04/27 10:05:52;;;;;;;33.20;22.73;;;;;;;10.13;68.79;97611.88;1600092;88;27035;-75
2022/04/27 10:08:20;;;;;;;33.10;21.90;;;;;;;10.10;68.66;97615.30;1594243;88;25793;-76
2022/04/27 10:10:47;;;;;;;28.40;20.90;;;;;;;10.07;68.84;97619.73;1600268;89;25862;-75
2022/04/27 10:13:16;;;;;;;32.95;22.20;;;;;;;10.03;68.86;97616.28;1600136;88;25867;-77
2022/04/27 10:15:45;;;;;;;33.65;21.80;;;;;;;10.02;69.27;97616.80;1599895;88;26628;-78
2022/04/27 10:18:17;;;;;;;32.08;22.82;;;;;;;10.02;69.17;97622.74;1600029;88;28274;-77
2022/04/27 10:20:48;;;;;;;32.73;22.17;;;;;;;9.99;69.37;97621.28;1577098;90;25971;-75
2022/04/27 10:23:32;;;;;;;37.15;25.17;;;;;;;10.01;69.34;97622.42;1536498;93;25935;-76
2022/04/27 10:26:11;;;;;;;;;;;;;;;10.02;69.56;97622.74;1538866;93;27474;-75
2022/04/27 10:28:47;;;;;;;35.88;24.95;;;;;;;10.02;69.94;97625.44;1536356;93;25803;-75
2022/04/27 10:31:16;;;;;;;37.00;24.18;;;;;;;10.01;69.70;97626.47;1548569;92;27020;-77
2022/04/27 10:33:51;;;;;;;35.52;23.92;;;;;;;10.02;69.69;97631.64;1548570;91;25883;-77
2022/04/27 10:36:25;;;;;;;32.25;23.50;;;;;;;10.07;69.75;97632.39;1548526;92;25889;-75
2022/04/27 10:39:15;;;;;;;35.10;24.72;;;;;;;10.07;69.61;97641.83;1548590;92;25882;-76
2022/04/27 10:42:06;;;;;;;31.48;21.20;;;;;;;10.04;69.72;97636.83;1556183;92;25791;-77
2022/04/27 10:47:25;;;;;;;35.63;23.30;;;;;;;10.04;70.05;97640.36;1521078;93;25869;-77
2022/04/27 10:50:18;;;;;;;33.60;22.77;;;;;;;10.04;69.98;97642.22;1521153;93;25801;-75
2022/04/27 10:52:55;;;;;;;34.53;23.83;;;;;;;10.04;70.08;97647.62;1521212;94;26500;-78
2022/04/27 10:55:42;;;;;;;33.42;24.37;;;;;;;10.03;69.86;97648.66;1518892;92;26047;-78
2022/04/27 10:58:33;;;;;;;34.98;23.47;;;;;;;9.92;69.96;97651.93;1542950;90;28283;-76
2022/04/27 11:01:11;;;;;;;33.58;22.55;;;;;;;9.97;70.06;97644.08;1569435;90;25826;-76
2022/04/27 11:03:39;;;;;;;35.17;22.95;;;;;;;10.02;70.01;97646.47;1569500;90;25866;-78
2022/04/27 11:06:12;;;;;;;29.05;21.52;;;;;;;10.03;70.13;97650.83;1569519;90;25771;-76
2022/04/27 11:09:22;;;;;;;25.65;18.12;;;;;;;10.02;70.37;97647.02;1566622;90;25820;-75
2022/04/27 11:11:56;;;;;;;25.50;18.80;;;;;;;9.99;70.32;97654.16;1578487;89;27500;-76
2022/04/27 11:14:34;;;;;;;27.60;19.20;;;;;;;9.97;70.33;97658.91;1587562;88;25773;-75
2022/04/27 11:16:59;;;;;;;24.07;18.62;;;;;;;9.91;70.50;97658.35;1587610;89;25332;-76
2022/04/27 11:19:39;;;;;;;21.52;17.45;;;;;;;9.83;70.47;97659.88;1596269;86;25775;-75
2022/04/27 11:22:13;;;;;;;22.30;17.15;;;;;;;9.73;70.40;97659.74;1571669;91;25766;-77
2022/04/27 11:24:40;;;;;;;26.33;18.02;;;;;;;9.68;70.49;97660.01;1572348;91;27576;-76
2022/04/27 11:27:07;;;;;;;27.65;17.30;;;;;;;9.66;70.58;97658.05;1576216;89;25858;-75
2022/04/27 11:29:35;;;;;;;21.55;16.45;;;;;;;9.68;70.73;97656.80;1581966;90;25804;-77
2022/04/27 11:32:08;;;;;;;17.90;14.60;;;;;;;9.65;70.71;97657.22;1582094;90;26080;-76
2022/04/27 11:34:34;;;;;;;18.20;13.70;;;;;;;9.63;70.64;97655.23;1582223;90;25827;-76
2022/04/27 11:37:21;;;;;;;17.12;12.95;;;;;;;9.67;70.68;97659.17;1578438;90;27436;-76
2022/04/27 11:39:49;;;;;;;16.07;13.18;;;;;;;9.66;70.50;97656.70;1579840;90;26449;-77
2022/04/27 11:42:17;;;;;;;19.60;14.00;;;;;;;9.64;70.44;97667.69;1582143;90;25768;-76
2022/04/27 11:44:52;;;;;;;18.27;13.62;;;;;;;9.65;70.58;97661.27;1620534;87;25872;-75
2022/04/27 11:47:31;;;;;;;20.90;13.90;;;;;;;9.69;70.69;97661.16;1642906;85;25993;-77
2022/04/27 11:50:01;;;;;;;20.20;13.30;;;;;;;9.79;70.66;97666.69;1606045;89;27403;-77
2022/04/27 11:55:10;;;;;;;19.87;14.50;;;;;;;9.73;70.51;97665.13;1573011;89;26067;-76
2022/04/27 11:57:39;;;;;;;17.82;13.05;;;;;;;9.75;70.62;97673.86;1523645;94;26536;-76
2022/04/27 12:00:07;;;;;;;17.20;12.73;;;;;;;9.87;70.58;97666.03;1523905;94;25762;-78
2022/04/27 12:02:35;;;;;;;14.18;11.55;;;;;;;9.95;70.31;97666.37;1523879;94;27507;-76
2022/04/27 12:05:02;;;;;;;15.30;11.55;;;;;;;10.02;70.26;97662.65;1523947;94;25565;-76